Time,TemperatureF,DewpointF,PressureIn,WindDirection,WindDirectionDegrees,WindSpeedMPH,WindSpeedGustMPH,Humidity,HourlyPrecipIn,Conditions,Clouds,dailyrainin,SoftwareType,DateUTC
2013-02-09 00:02:00,39.1,35.0,29.84,North,352,0.0,0.0,85,0.00,RA,,0.00,WeatherDisplay:10.37,2013-02-09 08:02:00,
2013-02-09 00:07:00,39.1,35.0,29.86,North,352,0.1,1.0,85,0.00,RA,,0.00,WeatherDisplay:10.37,2013-02-09 08:07:00,
2013-02-09 00:12:00,38.9,34.5,29.86,North,352,0.7,3.5,84,0.00,CLR,,0.00,WeatherDisplay:10.37,2013-02-09 08:12:00,
2013-02-09 00:17:00,39.1,34.7,29.86,North,352,0.0,0.0,84,0.00,CLR,,0.00,WeatherDisplay:10.37,2013-02-09 08:17:00,
2013-02-09 00:22:00,38.9,34.2,29.86,North,352,0.0,0.0,83,0.00,CLR,,0.00,WeatherDisplay:10.37,2013-02-09 08:22:00,
2013-02-09 00:27:00,38.9,34.2,29.87,North,352,0.0,0.0,83,0.00,CLR,,0.00,WeatherDisplay:10.37,2013-02-09 08:27:00,
2013-02-09 00:32:00,38.9,34.2,29.87,North,352,0.0,0.0,83,0.00,CLR,,0.00,WeatherDisplay:10.37,2013-02-09 08:32:00,
2013-02-09 00:37:00,38.8,34.1,29.87,North,352,0.0,0.0,83,0.00,CLR,,0.00,WeatherDisplay:10.37,2013-02-09 08:37:00,
2013-02-09 00:42:00,38.8,34.1,29.87,North,352,0.0,0.0,83,0.00,CLR,,0.00,WeatherDisplay:10.37,2013-02-09 08:42:00,
2013-02-09 00:47:00,38.9,34.2,29.87,North,352,0.0,0.0,83,0.00,CLR,,0.00,WeatherDisplay:10.37,2013-02-09 08:47:00,
2013-02-09 00:52:00,38.9,34.2,29.87,North,352,0.0,0.0,83,0.00,CLR,,0.00,WeatherDisplay:10.37,2013-02-09 08:52:00,
2013-02-09 00:57:00,38.8,34.1,29.87,North,352,0.0,1.0,83,0.00,CLR,,0.00,WeatherDisplay:10.37,2013-02-09 08:57:00,
2013-02-09 01:02:00,38.8,34.1,29.87,North,352,0.0,0.0,83,0.00,CLR,,0.00,WeatherDisplay:10.37,2013-02-09 09:02:00,
2013-02-09 01:07:00,38.6,33.9,29.87,North,352,0.0,0.0,83,0.00,CLR,,0.00,WeatherDisplay:10.37,2013-02-09 09:07:00,
2013-02-09 01:12:00,38.5,33.8,29.87,North,352,0.0,0.0,83,0.00,CLR,,0.00,WeatherDisplay:10.37,2013-02-09 09:12:00,
2013-02-09 01:17:00,38.5,33.8,29.87,North,352,0.0,0.0,83,0.00,CLR,,0.00,WeatherDisplay:10.37,2013-02-09 09:17:00,
2013-02-09 01:22:00,38.5,33.8,29.87,North,352,0.0,0.0,83,0.00,CLR,,0.00,WeatherDisplay:10.37,2013-02-09 09:22:00,
2013-02-09 01:27:00,38.5,33.8,29.87,North,352,0.0,0.0,83,0.00,CLR,,0.00,WeatherDisplay:10.37,2013-02-09 09:27:00,
2013-02-09 01:32:00,38.5,34.1,29.86,North,352,0.0,0.0,84,0.00,CLR,,0.00,WeatherDisplay:10.37,2013-02-09 09:32:00,
2013-02-09 01:37:00,38.5,34.1,29.86,North,352,0.0,0.0,84,0.00,CLR,,0.00,WeatherDisplay:10.37,2013-02-09 09:37:00,
2013-02-09 01:42:00,38.6,34.2,29.86,North,352,0.0,0.0,84,0.00,CLR,,0.00,WeatherDisplay:10.37,2013-02-09 09:42:00,
2013-02-09 01:47:00,38.6,34.2,29.86,North,352,0.0,0.0,84,0.00,CLR,,0.00,WeatherDisplay:10.37,2013-02-09 09:47:00,
2013-02-09 01:52:00,38.6,34.2,29.86,North,352,0.0,0.0,84,0.00,CLR,,0.00,WeatherDisplay:10.37,2013-02-09 09:52:00,
2013-02-09 01:57:00,38.6,34.2,29.87,North,352,0.0,0.0,84,0.00,CLR,,0.00,WeatherDisplay:10.37,2013-02-09 09:57:00,
2013-02-09 02:02:00,38.5,34.1,29.87,North,352,0.0,0.0,84,0.00,CLR,,0.00,WeatherDisplay:10.37,2013-02-09 10:02:00,
2013-02-09 02:07:00,38.5,34.4,29.87,North,352,0.0,0.0,85,0.00,CLR,,0.00,WeatherDisplay:10.37,2013-02-09 10:07:00,
2013-02-09 02:12:00,38.5,34.4,29.87,North,352,0.0,0.0,85,0.00,CLR,,0.00,WeatherDisplay:10.37,2013-02-09 10:12:00,
2013-02-09 02:17:00,38.5,34.4,29.87,North,352,0.0,0.0,85,0.00,CLR,,0.00,WeatherDisplay:10.37,2013-02-09 10:17:00,
2013-02-09 02:22:00,38.5,34.4,29.87,North,352,0.0,0.0,85,0.00,CLR,,0.00,WeatherDisplay:10.37,2013-02-09 10:22:00,
2013-02-09 02:27:00,38.5,34.4,29.87,North,352,0.0,0.0,85,0.00,CLR,,0.00,WeatherDisplay:10.37,2013-02-09 10:27:00,
2013-02-09 02:32:00,38.3,34.2,29.88,North,352,0.0,0.0,85,0.00,CLR,,0.00,WeatherDisplay:10.37,2013-02-09 10:32:00,
2013-02-09 02:37:00,38.2,34.1,29.88,North,352,0.0,0.0,85,0.00,CLR,,0.00,WeatherDisplay:10.37,2013-02-09 10:37:00,
2013-02-09 02:42:00,38.0,33.9,29.88,North,352,0.0,0.0,85,0.00,CLR,,0.00,WeatherDisplay:10.37,2013-02-09 10:42:00,
2013-02-09 02:47:00,37.9,33.8,29.87,North,352,0.0,0.0,85,0.00,CLR,,0.00,WeatherDisplay:10.37,2013-02-09 10:47:00,
2013-02-09 02:52:00,37.8,33.4,29.87,North,352,0.0,0.0,84,0.00,CLR,,0.00,WeatherDisplay:10.37,2013-02-09 10:52:00,
2013-02-09 02:58:00,37.5,33.1,29.87,North,352,0.0,0.0,84,0.00,CLR,,0.00,WeatherDisplay:10.37,2013-02-09 10:58:00,
2013-02-09 03:03:00,37.3,33.2,29.87,North,352,0.0,0.0,85,0.00,CLR,,0.00,WeatherDisplay:10.37,2013-02-09 11:03:00,
2013-02-09 03:08:00,37.2,33.1,29.87,North,352,0.0,0.0,85,0.00,CLR,,0.00,WeatherDisplay:10.37,2013-02-09 11:08:00,
2013-02-09 03:13:00,37.0,32.9,29.87,North,352,0.0,0.0,85,0.00,CLR,,0.00,WeatherDisplay:10.37,2013-02-09 11:13:00,
2013-02-09 03:18:00,36.8,32.7,29.87,North,352,0.0,0.0,85,0.00,CLR,,0.00,WeatherDisplay:10.37,2013-02-09 11:18:00,
2013-02-09 03:23:00,36.6,32.5,29.87,North,352,0.0,0.0,85,0.00,CLR,,0.00,WeatherDisplay:10.37,2013-02-09 11:23:00,
2013-02-09 03:28:00,36.5,32.4,29.87,North,352,0.0,0.0,85,0.00,CLR,,0.00,WeatherDisplay:10.37,2013-02-09 11:28:00,
2013-02-09 03:33:00,36.2,32.1,29.88,North,352,0.0,0.0,85,0.00,CLR,,0.00,WeatherDisplay:10.37,2013-02-09 11:33:00,
2013-02-09 03:38:00,36.0,31.9,29.88,North,352,0.0,0.0,85,0.00,CLR,,0.00,WeatherDisplay:10.37,2013-02-09 11:38:00,
2013-02-09 03:43:00,35.9,31.8,29.88,North,352,0.0,0.0,85,0.00,CLR,,0.00,WeatherDisplay:10.37,2013-02-09 11:43:00,
2013-02-09 03:48:00,35.9,31.8,29.88,North,352,0.0,0.0,85,0.00,CLR,,0.00,WeatherDisplay:10.37,2013-02-09 11:48:00,
2013-02-09 03:53:00,36.0,32.2,29.87,North,352,0.0,0.0,86,0.00,CLR,,0.00,WeatherDisplay:10.37,2013-02-09 11:53:00,
2013-02-09 03:58:00,36.0,32.2,29.87,North,352,0.0,0.0,86,0.00,CLR,,0.00,WeatherDisplay:10.37,2013-02-09 11:58:00,
2013-02-09 04:03:00,35.9,32.1,29.87,North,352,0.0,0.0,86,0.00,CLR,,0.00,WeatherDisplay:10.37,2013-02-09 12:03:00,
2013-02-09 04:08:00,35.8,32.0,29.87,North,352,0.0,0.0,86,0.00,CLR,,0.00,WeatherDisplay:10.37,2013-02-09 12:08:00,
2013-02-09 04:13:00,35.6,31.8,29.88,North,352,0.0,0.0,86,0.00,CLR,,0.00,WeatherDisplay:10.37,2013-02-09 12:13:00,
2013-02-09 04:18:00,35.5,31.7,29.88,North,352,0.0,0.0,86,0.00,CLR,,0.00,WeatherDisplay:10.37,2013-02-09 12:18:00,
2013-02-09 04:23:00,35.3,31.5,29.89,North,352,0.0,0.0,86,0.00,CLR,,0.00,WeatherDisplay:10.37,2013-02-09 12:23:00,
2013-02-09 04:28:00,35.2,31.4,29.89,North,352,0.0,0.0,86,0.00,CLR,,0.00,WeatherDisplay:10.37,2013-02-09 12:28:00,
2013-02-09 04:33:00,34.9,31.1,29.89,North,352,0.0,0.0,86,0.00,CLR,,0.00,WeatherDisplay:10.37,2013-02-09 12:33:00,
2013-02-09 04:38:00,34.7,30.9,29.89,North,352,0.0,0.0,86,0.00,CLR,,0.00,WeatherDisplay:10.37,2013-02-09 12:38:00,
2013-02-09 04:43:00,34.7,30.9,29.89,North,352,0.0,0.0,86,0.00,CLR,,0.00,WeatherDisplay:10.37,2013-02-09 12:43:00,
2013-02-09 04:48:00,34.4,30.6,29.88,North,352,0.0,0.0,86,0.00,CLR,,0.00,WeatherDisplay:10.37,2013-02-09 12:48:00,
2013-02-09 04:53:00,34.3,30.5,29.89,North,352,0.0,0.0,86,0.00,CLR,,0.00,WeatherDisplay:10.37,2013-02-09 12:53:00,
2013-02-09 04:58:00,34.1,30.4,29.89,North,352,0.0,0.0,86,0.00,CLR,,0.00,WeatherDisplay:10.37,2013-02-09 12:58:00,
2013-02-09 05:03:00,33.8,30.1,29.89,North,352,0.0,0.0,86,0.00,CLR,,0.00,WeatherDisplay:10.37,2013-02-09 13:03:00,
2013-02-09 05:08:00,33.8,30.1,29.89,North,352,0.0,0.0,86,0.00,CLR,,0.00,WeatherDisplay:10.37,2013-02-09 13:08:00,
2013-02-09 05:13:00,34.1,30.4,29.89,North,352,0.0,0.0,86,0.00,CLR,,0.00,WeatherDisplay:10.37,2013-02-09 13:13:00,
2013-02-09 05:18:00,34.3,30.8,29.89,North,352,0.0,0.0,87,0.00,CLR,,0.00,WeatherDisplay:10.37,2013-02-09 13:18:00,
2013-02-09 05:23:00,34.6,31.1,29.90,North,352,0.0,0.0,87,0.00,CLR,,0.00,WeatherDisplay:10.37,2013-02-09 13:23:00,
2013-02-09 05:28:00,34.9,31.4,29.90,North,352,0.0,0.0,87,0.00,CLR,,0.00,WeatherDisplay:10.37,2013-02-09 13:28:00,
2013-02-09 05:33:00,35.3,31.8,29.89,North,352,0.0,0.0,87,0.00,CLR,,0.00,WeatherDisplay:10.37,2013-02-09 13:33:00,
2013-02-09 05:38:00,35.3,31.8,29.89,North,352,0.0,0.0,87,0.00,CLR,,0.00,WeatherDisplay:10.37,2013-02-09 13:38:00,
2013-02-09 05:43:00,35.3,31.8,29.90,North,352,0.0,0.0,87,0.00,CLR,,0.00,WeatherDisplay:10.37,2013-02-09 13:43:00,
2013-02-09 05:48:00,35.5,32.0,29.90,North,352,0.0,0.0,87,0.00,CLR,,0.00,WeatherDisplay:10.37,2013-02-09 13:48:00,
2013-02-09 05:53:00,35.5,32.0,29.90,North,352,0.0,0.0,87,0.00,CLR,,0.00,WeatherDisplay:10.37,2013-02-09 13:53:00,
2013-02-09 05:58:00,35.3,31.8,29.90,North,352,0.0,0.0,87,0.00,CLR,,0.00,WeatherDisplay:10.37,2013-02-09 13:58:00,
2013-02-09 06:03:00,35.2,31.7,29.90,North,352,0.0,0.0,87,0.00,CLR,,0.00,WeatherDisplay:10.37,2013-02-09 14:03:00,
2013-02-09 06:08:00,35.0,31.5,29.91,North,352,0.0,0.0,87,0.00,CLR,,0.00,WeatherDisplay:10.37,2013-02-09 14:08:00,
2013-02-09 06:13:00,34.9,31.4,29.91,North,352,0.0,0.0,87,0.00,CLR,,0.00,WeatherDisplay:10.37,2013-02-09 14:13:00,
2013-02-09 06:18:00,34.7,31.2,29.91,North,352,0.0,0.0,87,0.00,CLR,,0.00,WeatherDisplay:10.37,2013-02-09 14:18:00,
2013-02-09 06:23:00,34.4,30.9,29.91,North,352,0.0,0.0,87,0.00,CLR,,0.00,WeatherDisplay:10.37,2013-02-09 14:23:00,
2013-02-09 06:28:00,34.3,30.8,29.91,North,352,0.0,0.0,87,0.00,CLR,,0.00,WeatherDisplay:10.37,2013-02-09 14:28:00,
2013-02-09 06:33:00,34.3,30.8,29.91,North,352,0.0,0.0,87,0.00,CLR,,0.00,WeatherDisplay:10.37,2013-02-09 14:33:00,
2013-02-09 06:38:00,34.1,30.6,29.92,North,352,0.0,0.0,87,0.00,CLR,,0.00,WeatherDisplay:10.37,2013-02-09 14:38:00,
2013-02-09 06:43:00,34.0,30.5,29.91,North,352,0.0,0.0,87,0.00,CLR,,0.00,WeatherDisplay:10.37,2013-02-09 14:43:00,
2013-02-09 06:48:00,33.8,30.3,29.91,North,352,0.0,0.0,87,0.00,CLR,,0.00,WeatherDisplay:10.37,2013-02-09 14:48:00,
2013-02-09 06:53:00,33.8,30.3,29.92,North,352,0.0,0.0,87,0.00,CLR,,0.00,WeatherDisplay:10.37,2013-02-09 14:53:00,
2013-02-09 06:58:00,33.8,30.3,29.93,North,352,0.0,0.0,87,0.00,CLR,,0.00,WeatherDisplay:10.37,2013-02-09 14:58:00,
2013-02-09 07:03:00,33.8,30.3,29.93,North,352,0.0,0.0,87,0.00,CLR,,0.00,WeatherDisplay:10.37,2013-02-09 15:03:00,
2013-02-09 07:08:00,34.0,30.5,29.93,North,352,0.0,1.2,87,0.00,CLR,,0.00,WeatherDisplay:10.37,2013-02-09 15:08:00,
2013-02-09 07:13:00,34.1,30.9,29.94,North,352,0.0,0.0,88,0.00,CLR,,0.00,WeatherDisplay:10.37,2013-02-09 15:13:00,
2013-02-09 07:18:00,34.4,31.2,29.94,North,352,0.0,0.0,88,0.00,CLR,,0.00,WeatherDisplay:10.37,2013-02-09 15:18:00,
2013-02-09 07:23:00,34.6,31.4,29.94,North,352,0.0,0.0,88,0.00,CLR,,0.00,WeatherDisplay:10.37,2013-02-09 15:23:00,
2013-02-09 07:28:00,35.0,31.8,29.94,North,352,0.0,0.0,88,0.00,CLR,,0.00,WeatherDisplay:10.37,2013-02-09 15:28:00,
2013-02-09 07:33:00,35.5,32.3,29.94,North,352,0.0,0.0,88,0.00,CLR,,0.00,WeatherDisplay:10.37,2013-02-09 15:33:00,
2013-02-09 07:38:00,35.9,32.7,29.94,North,352,0.0,0.0,88,0.00,CLR,,0.00,WeatherDisplay:10.37,2013-02-09 15:38:00,
2013-02-09 07:43:00,36.6,33.4,29.94,North,352,0.0,0.0,88,0.00,CLR,,0.00,WeatherDisplay:10.37,2013-02-09 15:43:00,
2013-02-09 07:48:00,37.5,34.3,29.95,North,352,0.0,0.0,88,0.00,CLR,,0.00,WeatherDisplay:10.37,2013-02-09 15:48:00,
2013-02-09 07:53:00,38.6,35.4,29.95,North,352,0.0,0.0,88,0.00,CLR,,0.00,WeatherDisplay:10.37,2013-02-09 15:53:00,
2013-02-09 07:58:00,39.8,36.0,29.95,North,352,0.0,0.0,86,0.00,CLR,,0.00,WeatherDisplay:10.37,2013-02-09 15:58:00,
2013-02-09 08:03:00,40.6,35.5,29.95,North,352,0.0,0.0,82,0.00,CLR,,0.00,WeatherDisplay:10.37,2013-02-09 16:03:00,
2013-02-09 08:08:00,41.5,35.8,29.95,North,352,0.0,0.0,80,0.00,CLR,,0.00,WeatherDisplay:10.37,2013-02-09 16:08:00,
2013-02-09 08:13:00,41.8,33.8,29.95,North,358,1.3,2.3,73,0.00,CLR,,0.00,WeatherDisplay:10.37,2013-02-09 16:13:00,
2013-02-09 08:18:00,41.9,33.9,29.95,NNE,27,0.3,1.2,73,0.00,CLR,,0.00,WeatherDisplay:10.37,2013-02-09 16:18:00,
2013-02-09 08:23:00,42.2,32.8,29.95,NE,34,0.0,1.2,69,0.00,CLR,,0.00,WeatherDisplay:10.37,2013-02-09 16:23:00,
2013-02-09 08:28:00,42.6,33.9,29.95,NE,34,0.0,0.0,71,0.00,CLR,,0.00,WeatherDisplay:10.37,2013-02-09 16:28:00,
2013-02-09 08:33:00,43.1,34.0,29.95,NE,34,0.3,1.0,70,0.00,CLR,,0.00,WeatherDisplay:10.37,2013-02-09 16:33:00,
2013-02-09 08:38:00,43.3,33.8,29.95,NE,34,0.0,0.0,69,0.00,CLR,,0.00,WeatherDisplay:10.37,2013-02-09 16:38:00,
2013-02-09 08:43:00,43.9,34.4,29.96,NE,34,0.0,1.2,69,0.00,CLR,,0.00,WeatherDisplay:10.37,2013-02-09 16:43:00,
2013-02-09 08:48:00,44.5,35.3,29.96,NE,35,0.0,0.0,70,0.00,CLR,,0.00,WeatherDisplay:10.37,2013-02-09 16:48:00,
2013-02-09 08:53:00,45.1,35.2,29.95,NE,35,0.0,0.0,68,0.00,CLR,,0.00,WeatherDisplay:10.37,2013-02-09 16:53:00,
2013-02-09 08:58:00,45.2,35.3,29.96,NE,35,0.0,0.0,68,0.00,CLR,,0.00,WeatherDisplay:10.37,2013-02-09 16:58:00,
2013-02-09 09:03:00,44.8,34.1,29.96,NE,35,0.0,0.0,66,0.00,CLR,,0.00,WeatherDisplay:10.37,2013-02-09 17:03:00,
2013-02-09 09:08:00,44.5,34.6,29.96,NE,35,0.0,0.0,68,0.00,CLR,,0.00,WeatherDisplay:10.37,2013-02-09 17:08:00,
2013-02-09 09:13:00,44.1,34.6,29.96,NE,35,0.0,0.0,69,0.00,CLR,,0.00,WeatherDisplay:10.37,2013-02-09 17:13:00,
2013-02-09 09:18:00,43.5,34.7,29.96,NE,35,0.0,0.0,71,0.00,CLR,,0.00,WeatherDisplay:10.37,2013-02-09 17:18:00,
2013-02-09 09:23:00,43.1,34.3,29.97,NE,35,0.0,0.0,71,0.00,CLR,,0.00,WeatherDisplay:10.37,2013-02-09 17:23:00,
2013-02-09 09:28:00,42.9,34.1,29.97,NE,35,0.0,0.0,71,0.00,CLR,,0.00,WeatherDisplay:10.37,2013-02-09 17:28:00,
2013-02-09 09:33:00,42.6,34.2,29.97,NW,307,0.6,3.0,72,0.00,CLR,,0.00,WeatherDisplay:10.37,2013-02-09 17:33:00,
2013-02-09 09:38:00,42.8,34.4,29.97,WNW,303,0.0,0.0,72,0.00,CLR,,0.00,WeatherDisplay:10.37,2013-02-09 17:38:00,
2013-02-09 09:43:00,42.8,34.4,29.97,WNW,291,0.1,2.0,72,0.00,CLR,,0.00,WeatherDisplay:10.37,2013-02-09 17:43:00,
2013-02-09 09:48:00,42.8,34.4,29.97,WNW,290,0.1,1.0,72,0.00,CLR,,0.00,WeatherDisplay:10.37,2013-02-09 17:48:00,
2013-02-09 09:53:00,42.9,34.5,29.97,WNW,290,0.2,1.2,72,0.00,CLR,,0.00,WeatherDisplay:10.37,2013-02-09 17:53:00,
2013-02-09 09:58:00,43.6,35.2,29.98,WSW,248,0.6,3.5,72,0.00,CLR,,0.00,WeatherDisplay:10.37,2013-02-09 17:58:00,
2013-02-09 10:03:00,44.2,35.0,29.98,SW,214,0.0,3.5,70,0.00,CLR,,0.00,WeatherDisplay:10.37,2013-02-09 18:03:00,
2013-02-09 10:08:00,44.2,34.3,29.98,SW,219,0.4,2.3,68,0.00,CLR,,0.00,WeatherDisplay:10.37,2013-02-09 18:08:00,
2013-02-09 10:13:00,44.2,34.3,29.98,SW,224,0.3,2.3,68,0.00,CLR,,0.00,WeatherDisplay:10.37,2013-02-09 18:13:00,
2013-02-09 10:18:00,44.2,34.7,29.98,SW,224,0.0,0.0,69,0.00,CLR,,0.00,WeatherDisplay:10.37,2013-02-09 18:18:00,
2013-02-09 10:23:00,44.2,34.3,29.99,South,187,0.7,3.5,68,0.00,CLR,,0.00,WeatherDisplay:10.37,2013-02-09 18:23:00,
2013-02-09 10:28:00,44.5,35.0,29.99,SSW,206,1.3,4.0,69,0.00,CLR,,0.00,WeatherDisplay:10.37,2013-02-09 18:28:00,
2013-02-09 10:33:00,45.5,35.9,29.99,South,171,0.2,2.3,69,0.00,CLR,,0.00,WeatherDisplay:10.37,2013-02-09 18:33:00,
2013-02-09 10:38:00,46.2,36.2,29.98,SSE,167,0.2,2.0,68,0.00,CLR,,0.00,WeatherDisplay:10.37,2013-02-09 18:38:00,
2013-02-09 10:43:00,47.4,37.4,29.98,ESE,123,0.5,2.3,68,0.00,CLR,,0.00,WeatherDisplay:10.37,2013-02-09 18:43:00,
2013-02-09 10:48:00,48.0,36.0,29.98,South,172,1.2,3.5,63,0.00,CLR,,0.00,WeatherDisplay:10.37,2013-02-09 18:48:00,
2013-02-09 10:53:00,47.9,35.5,29.98,South,179,0.0,1.0,62,0.00,CLR,,0.00,WeatherDisplay:10.37,2013-02-09 18:53:00,
2013-02-09 10:58:00,47.4,35.0,29.98,South,179,0.2,1.0,62,0.00,CLR,,0.00,WeatherDisplay:10.37,2013-02-09 18:58:00,
2013-02-09 11:03:00,47.3,35.3,29.98,South,179,0.2,1.0,63,0.00,CLR,,0.00,WeatherDisplay:10.37,2013-02-09 19:03:00,
2013-02-09 11:08:00,47.0,34.6,29.98,South,179,0.1,1.2,62,0.00,CLR,,0.00,WeatherDisplay:10.37,2013-02-09 19:08:00,
2013-02-09 11:13:00,47.0,34.2,29.98,South,183,0.1,2.0,61,0.00,CLR,,0.00,WeatherDisplay:10.37,2013-02-09 19:13:00,
2013-02-09 11:18:00,47.9,35.1,29.98,South,182,0.1,2.3,61,0.00,CLR,,0.00,WeatherDisplay:10.37,2013-02-09 19:18:00,
2013-02-09 11:23:00,49.2,36.7,29.97,WSW,239,1.2,5.0,62,0.00,CLR,,0.00,WeatherDisplay:10.37,2013-02-09 19:23:00,
2013-02-09 11:28:00,50.1,34.5,29.97,WSW,238,1.3,10.4,55,0.00,CLR,,0.00,WeatherDisplay:10.37,2013-02-09 19:28:00,
2013-02-09 11:33:00,49.8,33.8,29.97,South,184,0.5,3.5,54,0.00,CLR,,0.00,WeatherDisplay:10.37,2013-02-09 19:33:00,
2013-02-09 11:38:00,49.4,34.8,29.97,WSW,250,0.0,1.2,57,0.00,CLR,,0.00,WeatherDisplay:10.37,2013-02-09 19:38:00,
2013-02-09 11:43:00,49.4,36.1,29.98,SSW,205,0.2,2.3,60,0.00,CLR,,0.00,WeatherDisplay:10.37,2013-02-09 19:43:00,
2013-02-09 11:48:00,48.9,33.0,29.98,SSW,212,0.3,4.6,54,0.00,CLR,,0.00,WeatherDisplay:10.37,2013-02-09 19:48:00,
2013-02-09 11:53:00,48.9,33.9,29.97,South,185,0.7,5.0,56,0.00,CLR,,0.00,WeatherDisplay:10.37,2013-02-09 19:53:00,
2013-02-09 11:58:00,49.2,33.7,29.97,SSW,201,0.5,2.3,55,0.00,CLR,,0.00,WeatherDisplay:10.37,2013-02-09 19:58:00,
2013-02-09 12:03:00,50.2,35.5,29.97,SW,226,0.5,2.0,57,0.00,CLR,,0.00,WeatherDisplay:10.37,2013-02-09 20:03:00,
2013-02-09 12:08:00,50.5,35.4,29.97,SSW,201,0.1,1.2,56,0.00,CLR,,0.00,WeatherDisplay:10.37,2013-02-09 20:08:00,
2013-02-09 12:13:00,50.1,34.5,29.97,West,264,0.0,1.2,55,0.00,CLR,,0.00,WeatherDisplay:10.37,2013-02-09 20:13:00,
2013-02-09 12:18:00,49.6,33.6,29.97,SW,214,1.0,4.0,54,0.00,CLR,,0.00,WeatherDisplay:10.37,2013-02-09 20:18:00,
2013-02-09 12:23:00,49.4,34.8,29.97,SSW,211,1.2,4.0,57,0.00,CLR,,0.00,WeatherDisplay:10.37,2013-02-09 20:23:00,
2013-02-09 12:28:00,49.8,33.8,29.96,SW,216,0.0,0.0,54,0.00,CLR,,0.00,WeatherDisplay:10.37,2013-02-09 20:28:00,
2013-02-09 12:33:00,50.1,34.5,29.96,SW,227,1.3,3.5,55,0.00,CLR,,0.00,WeatherDisplay:10.37,2013-02-09 20:33:00,
2013-02-09 12:38:00,49.9,33.0,29.96,SSW,209,1.9,4.6,52,0.00,CLR,,0.00,WeatherDisplay:10.37,2013-02-09 20:38:00,
2013-02-09 12:43:00,49.9,32.5,29.96,SSW,209,0.3,3.5,51,0.00,CLR,,0.00,WeatherDisplay:10.37,2013-02-09 20:43:00,
2013-02-09 12:48:00,49.9,32.5,29.96,SSW,210,0.3,2.3,51,0.00,CLR,,0.00,WeatherDisplay:10.37,2013-02-09 20:48:00,
2013-02-09 12:53:00,49.8,33.8,29.96,SSW,209,0.1,4.0,54,0.00,CLR,,0.00,WeatherDisplay:10.37,2013-02-09 20:53:00,
2013-02-09 12:58:00,49.5,33.1,29.95,SW,214,1.1,3.0,53,0.00,CLR,,0.00,WeatherDisplay:10.37,2013-02-09 20:58:00,
2013-02-09 13:03:00,49.4,32.5,29.95,SW,214,0.0,0.0,52,0.00,CLR,,0.00,WeatherDisplay:10.37,2013-02-09 21:03:00,
2013-02-09 13:08:00,49.4,33.9,29.95,South,169,0.0,0.0,55,0.00,CLR,,0.00,WeatherDisplay:10.37,2013-02-09 21:08:00,
2013-02-09 13:13:00,50.1,33.1,29.95,SSE,166,1.0,3.5,52,0.00,CLR,,0.00,WeatherDisplay:10.37,2013-02-09 21:13:00,
2013-02-09 13:18:00,50.5,33.0,29.95,SSW,209,0.0,1.2,51,0.00,CLR,,0.00,WeatherDisplay:10.37,2013-02-09 21:18:00,
2013-02-09 13:23:00,50.5,34.0,29.95,SSW,209,0.6,3.0,53,0.00,CLR,,0.00,WeatherDisplay:10.37,2013-02-09 21:23:00,
2013-02-09 13:28:00,50.5,34.5,29.95,SSW,200,0.8,2.0,54,0.00,CLR,,0.00,WeatherDisplay:10.37,2013-02-09 21:28:00,
2013-02-09 13:33:00,50.7,34.6,29.95,West,269,0.0,1.0,54,0.00,CLR,,0.00,WeatherDisplay:10.37,2013-02-09 21:33:00,
2013-02-09 13:38:00,51.3,34.3,29.95,SSW,210,4.3,6.0,52,0.00,CLR,,0.00,WeatherDisplay:10.37,2013-02-09 21:38:00,
2013-02-09 13:43:00,52.0,32.4,29.95,South,172,0.3,1.2,47,0.00,CLR,,0.00,WeatherDisplay:10.37,2013-02-09 21:43:00,
2013-02-09 13:48:00,52.3,34.2,29.94,South,172,0.1,1.2,50,0.00,CLR,,0.00,WeatherDisplay:10.37,2013-02-09 21:48:00,
2013-02-09 13:53:00,52.9,34.8,29.94,NW,309,0.6,2.3,50,0.00,CLR,,0.00,WeatherDisplay:10.37,2013-02-09 21:53:00,
2013-02-09 13:58:00,53.6,32.8,29.94,WNW,283,1.7,4.0,45,0.00,CLR,,0.00,WeatherDisplay:10.37,2013-02-09 21:58:00,
2013-02-09 14:03:00,54.4,35.1,29.94,WNW,283,0.0,0.0,48,0.00,CLR,,0.00,WeatherDisplay:10.37,2013-02-09 22:03:00,
2013-02-09 14:08:00,54.1,34.3,29.94,SW,217,1.1,3.0,47,0.00,CLR,,0.00,WeatherDisplay:10.37,2013-02-09 22:08:00,
2013-02-09 14:13:00,53.6,34.4,29.95,WNW,303,1.5,6.0,48,0.00,CLR,,0.00,WeatherDisplay:10.37,2013-02-09 22:13:00,
2013-02-09 14:18:00,53.2,32.4,29.95,WNW,300,0.1,2.3,45,0.00,CLR,,0.00,WeatherDisplay:10.37,2013-02-09 22:18:00,
2013-02-09 14:23:00,52.8,30.9,29.95,WSW,258,0.6,3.5,43,0.00,CLR,,0.00,WeatherDisplay:10.37,2013-02-09 22:23:00,
2013-02-09 14:28:00,51.7,29.9,29.95,SW,216,0.3,3.5,43,0.00,CLR,,0.00,WeatherDisplay:10.37,2013-02-09 22:28:00,
2013-02-09 14:33:00,51.1,32.6,29.95,SW,217,0.1,3.5,49,0.00,CLR,,0.00,WeatherDisplay:10.37,2013-02-09 22:33:00,
2013-02-09 14:38:00,51.0,32.0,29.95,SW,232,0.0,0.0,48,0.00,CLR,,0.00,WeatherDisplay:10.37,2013-02-09 22:38:00,
2013-02-09 14:43:00,50.8,32.3,29.95,SW,234,0.0,1.2,49,0.00,CLR,,0.00,WeatherDisplay:10.37,2013-02-09 22:43:00,
2013-02-09 14:48:00,50.7,32.2,29.95,SW,234,0.0,1.2,49,0.00,CLR,,0.00,WeatherDisplay:10.37,2013-02-09 22:48:00,
2013-02-09 14:53:00,50.7,30.7,29.95,SW,234,0.1,1.2,46,0.00,CLR,,0.00,WeatherDisplay:10.37,2013-02-09 22:53:00,
2013-02-09 14:58:00,50.7,31.2,29.95,SW,234,0.1,1.0,47,0.00,CLR,,0.00,WeatherDisplay:10.37,2013-02-09 22:58:00,
2013-02-09 15:03:00,50.8,31.3,29.96,SW,234,0.1,1.2,47,0.00,CLR,,0.00,WeatherDisplay:10.37,2013-02-09 23:03:00,
2013-02-09 15:08:00,51.0,30.9,29.95,SW,234,0.1,2.0,46,0.00,CLR,,0.00,WeatherDisplay:10.37,2013-02-09 23:08:00,
2013-02-09 15:13:00,51.1,29.9,29.95,SW,234,0.7,2.0,44,0.00,CLR,,0.00,WeatherDisplay:10.37,2013-02-09 23:13:00,
2013-02-09 15:18:00,51.3,31.2,29.95,SW,234,0.0,1.2,46,0.00,CLR,,0.00,WeatherDisplay:10.37,2013-02-09 23:18:00,
2013-02-09 15:23:00,51.1,31.6,29.95,SW,234,0.0,0.0,47,0.00,CLR,,0.00,WeatherDisplay:10.37,2013-02-09 23:23:00,
2013-02-09 15:28:00,51.0,32.5,29.95,SW,234,0.0,0.0,49,0.00,CLR,,0.00,WeatherDisplay:10.37,2013-02-09 23:28:00,
2013-02-09 15:33:00,50.7,30.1,29.95,SW,234,0.1,1.2,45,0.00,CLR,,0.00,WeatherDisplay:10.37,2013-02-09 23:33:00,
2013-02-09 15:38:00,50.5,31.0,29.95,SW,234,0.0,1.2,47,0.00,CLR,,0.00,WeatherDisplay:10.37,2013-02-09 23:38:00,
2013-02-09 15:43:00,50.4,31.4,29.95,SW,234,0.0,0.0,48,0.00,CLR,,0.00,WeatherDisplay:10.37,2013-02-09 23:43:00,
2013-02-09 15:48:00,50.4,30.9,29.95,SW,234,0.0,1.2,47,0.00,CLR,,0.00,WeatherDisplay:10.37,2013-02-09 23:48:00,
2013-02-09 15:53:00,50.4,31.9,29.95,SW,234,0.0,0.0,49,0.00,CLR,,0.00,WeatherDisplay:10.37,2013-02-09 23:53:00,
2013-02-09 15:58:00,50.4,31.9,29.95,SW,234,0.0,0.0,49,0.00,CLR,,0.00,WeatherDisplay:10.37,2013-02-09 23:58:00,
2013-02-09 16:03:00,50.4,31.4,29.95,SW,234,0.0,1.0,48,0.00,CLR,,0.00,WeatherDisplay:10.37,2013-02-10 00:03:00,
2013-02-09 16:08:00,50.4,32.4,29.96,SW,235,0.1,1.2,50,0.00,CLR,,0.00,WeatherDisplay:10.37,2013-02-10 00:08:00,
2013-02-09 16:13:00,50.2,31.8,29.96,SW,235,0.0,0.0,49,0.00,CLR,,0.00,WeatherDisplay:10.37,2013-02-10 00:13:00,
2013-02-09 16:19:00,49.9,31.5,29.95,WSW,237,0.8,3.5,49,0.00,CLR,,0.00,WeatherDisplay:10.37,2013-02-10 00:19:00,
2013-02-09 16:24:00,49.6,32.2,29.95,WSW,237,0.0,0.0,51,0.00,CLR,,0.00,WeatherDisplay:10.37,2013-02-10 00:24:00,
2013-02-09 16:29:00,49.5,32.1,29.95,WSW,237,0.0,0.0,51,0.00,CLR,,0.00,WeatherDisplay:10.37,2013-02-10 00:29:00,
2013-02-09 16:34:00,49.5,30.6,29.95,WSW,237,0.0,0.0,48,0.00,CLR,,0.00,WeatherDisplay:10.37,2013-02-10 00:34:00,
2013-02-09 16:39:00,49.5,31.6,29.95,WSW,237,0.0,0.0,50,0.00,CLR,,0.00,WeatherDisplay:10.37,2013-02-10 00:39:00,
2013-02-09 16:44:00,49.4,31.0,29.96,WSW,237,0.0,0.0,49,0.00,CLR,,0.00,WeatherDisplay:10.37,2013-02-10 00:44:00,
2013-02-09 16:49:00,49.1,31.7,29.96,WSW,237,0.0,0.0,51,0.00,CLR,,0.00,WeatherDisplay:10.37,2013-02-10 00:49:00,
2013-02-09 16:54:00,48.9,31.5,29.96,WSW,237,0.0,0.0,51,0.00,CLR,,0.00,WeatherDisplay:10.37,2013-02-10 00:54:00,
2013-02-09 16:59:00,48.6,31.3,29.96,WSW,237,0.0,0.0,51,0.00,CLR,,0.00,WeatherDisplay:10.37,2013-02-10 00:59:00,
2013-02-09 17:04:00,48.5,31.2,29.96,WSW,237,0.0,0.0,51,0.00,CLR,,0.00,WeatherDisplay:10.37,2013-02-10 01:04:00,
2013-02-09 17:09:00,48.3,31.9,29.96,WSW,237,0.0,0.0,53,0.00,CLR,,0.00,WeatherDisplay:10.37,2013-02-10 01:09:00,
2013-02-09 17:14:00,48.0,31.7,29.96,WSW,237,0.0,0.0,53,0.00,CLR,,0.00,WeatherDisplay:10.37,2013-02-10 01:14:00,
2013-02-09 17:19:00,47.9,32.0,29.96,WSW,237,0.0,0.0,54,0.00,CLR,,0.00,WeatherDisplay:10.37,2013-02-10 01:19:00,
2013-02-09 17:24:00,47.7,32.3,29.96,WSW,237,0.0,0.0,55,0.00,CLR,,0.00,WeatherDisplay:10.37,2013-02-10 01:24:00,
2013-02-09 17:29:00,47.6,31.8,29.96,WSW,237,0.0,0.0,54,0.00,CLR,,0.00,WeatherDisplay:10.37,2013-02-10 01:29:00,
2013-02-09 17:34:00,47.4,32.0,29.96,WSW,237,0.0,0.0,55,0.00,CLR,,0.00,WeatherDisplay:10.37,2013-02-10 01:34:00,
2013-02-09 17:39:00,47.3,31.9,29.96,WSW,237,0.0,0.0,55,0.00,CLR,,0.00,WeatherDisplay:10.37,2013-02-10 01:39:00,
2013-02-09 17:44:00,47.3,32.8,29.96,WSW,237,0.0,0.0,57,0.00,CLR,,0.00,WeatherDisplay:10.37,2013-02-10 01:44:00,
2013-02-09 17:49:00,47.1,32.2,29.96,WSW,237,0.0,0.0,56,0.00,CLR,,0.00,WeatherDisplay:10.37,2013-02-10 01:49:00,
2013-02-09 17:54:00,47.1,32.6,29.96,WSW,237,0.0,0.0,57,0.00,CLR,,0.00,WeatherDisplay:10.37,2013-02-10 01:54:00,
2013-02-09 17:59:00,47.0,33.0,29.96,WSW,237,0.0,0.0,58,0.00,CLR,,0.00,WeatherDisplay:10.37,2013-02-10 01:59:00,
2013-02-09 18:04:00,47.1,33.1,29.97,WSW,237,0.0,0.0,58,0.00,CLR,,0.00,WeatherDisplay:10.37,2013-02-10 02:04:00,
2013-02-09 18:09:00,47.1,33.5,29.98,WSW,237,0.0,0.0,59,0.00,CLR,,0.00,WeatherDisplay:10.37,2013-02-10 02:09:00,
2013-02-09 18:14:00,47.1,33.1,29.98,WSW,237,0.0,0.0,58,0.00,CLR,,0.00,WeatherDisplay:10.37,2013-02-10 02:14:00,
2013-02-09 18:19:00,47.1,33.5,29.98,WSW,237,0.0,0.0,59,0.00,CLR,,0.00,WeatherDisplay:10.37,2013-02-10 02:19:00,
2013-02-09 18:24:00,47.1,33.5,29.98,WSW,237,0.0,0.0,59,0.00,CLR,,0.00,WeatherDisplay:10.37,2013-02-10 02:24:00,
2013-02-09 18:29:00,47.1,33.5,29.98,WSW,237,0.1,1.0,59,0.00,CLR,,0.00,WeatherDisplay:10.37,2013-02-10 02:29:00,
2013-02-09 18:34:00,47.1,33.5,29.98,WSW,237,0.0,0.0,59,0.00,CLR,,0.00,WeatherDisplay:10.37,2013-02-10 02:34:00,
2013-02-09 18:39:00,47.0,33.0,29.98,WSW,237,0.8,2.0,58,0.00,CLR,,0.00,WeatherDisplay:10.37,2013-02-10 02:39:00,
2013-02-09 18:44:00,47.1,31.3,29.98,WSW,237,0.0,0.0,54,0.00,CLR,,0.00,WeatherDisplay:10.37,2013-02-10 02:44:00,
2013-02-09 18:49:00,47.1,32.2,29.98,WSW,237,0.0,0.0,56,0.00,CLR,,0.00,WeatherDisplay:10.37,2013-02-10 02:49:00,
2013-02-09 18:54:00,47.3,33.7,29.99,WSW,237,0.0,0.0,59,0.00,CLR,,0.00,WeatherDisplay:10.37,2013-02-10 02:54:00,
2013-02-09 18:59:00,47.3,34.5,29.99,SW,230,0.5,3.0,61,0.00,CLR,,0.00,WeatherDisplay:10.37,2013-02-10 02:59:00,
2013-02-09 19:04:00,47.4,35.0,29.98,SW,230,0.0,1.0,62,0.00,CLR,,0.00,WeatherDisplay:10.37,2013-02-10 03:04:00,
2013-02-09 19:09:00,47.4,35.4,29.98,SW,229,0.0,0.0,63,0.00,CLR,,0.00,WeatherDisplay:10.37,2013-02-10 03:09:00,
2013-02-09 19:14:00,47.3,35.7,29.98,SW,229,0.0,0.0,64,0.00,CLR,,0.00,WeatherDisplay:10.37,2013-02-10 03:14:00,
2013-02-09 19:19:00,47.3,35.7,29.98,SW,229,0.0,0.0,64,0.00,CLR,,0.00,WeatherDisplay:10.37,2013-02-10 03:19:00,
2013-02-09 19:24:00,47.1,35.5,29.98,SW,229,0.0,1.2,64,0.00,CLR,,0.00,WeatherDisplay:10.37,2013-02-10 03:24:00,
2013-02-09 19:29:00,47.1,35.9,29.98,SW,228,0.3,2.0,65,0.00,CLR,,0.00,WeatherDisplay:10.37,2013-02-10 03:29:00,
2013-02-09 19:34:00,47.0,35.8,29.98,SW,228,0.1,1.2,65,0.00,CLR,,0.00,WeatherDisplay:10.37,2013-02-10 03:34:00,
2013-02-09 19:39:00,46.8,35.6,29.99,SW,227,0.0,0.0,65,0.00,CLR,,0.00,WeatherDisplay:10.37,2013-02-10 03:39:00,
2013-02-09 19:44:00,46.8,35.6,29.99,SW,227,0.0,0.0,65,0.00,CLR,,0.00,WeatherDisplay:10.37,2013-02-10 03:44:00,
2013-02-09 19:49:00,46.8,35.6,29.99,SW,227,0.0,1.2,65,0.00,CLR,,0.00,WeatherDisplay:10.37,2013-02-10 03:49:00,
2013-02-09 19:54:00,46.7,35.9,29.99,SW,227,0.0,0.0,66,0.00,CLR,,0.00,WeatherDisplay:10.37,2013-02-10 03:54:00,
2013-02-09 19:59:00,46.7,35.9,29.99,SW,227,0.0,0.0,66,0.00,CLR,,0.00,WeatherDisplay:10.37,2013-02-10 03:59:00,
2013-02-09 20:04:00,46.5,35.7,29.98,SW,227,0.0,0.0,66,0.00,CLR,,0.00,WeatherDisplay:10.37,2013-02-10 04:04:00,
2013-02-09 20:09:00,46.4,36.0,29.99,SW,226,0.5,3.0,67,0.00,CLR,,0.00,WeatherDisplay:10.37,2013-02-10 04:09:00,
2013-02-09 20:14:00,46.2,36.2,29.99,SW,226,0.3,2.3,68,0.00,CLR,,0.00,WeatherDisplay:10.37,2013-02-10 04:14:00,
2013-02-09 20:19:00,46.2,36.6,29.99,SW,226,0.0,0.0,69,0.00,CLR,,0.00,WeatherDisplay:10.37,2013-02-10 04:19:00,
2013-02-09 20:24:00,46.0,36.4,29.99,SW,225,0.1,1.2,69,0.00,CLR,,0.00,WeatherDisplay:10.37,2013-02-10 04:24:00,
2013-02-09 20:29:00,45.8,36.2,30.00,South,175,0.0,0.0,69,0.00,CLR,,0.00,WeatherDisplay:10.37,2013-02-10 04:29:00,
2013-02-09 20:34:00,45.5,36.3,30.00,South,175,0.2,2.0,70,0.00,CLR,,0.00,WeatherDisplay:10.37,2013-02-10 04:34:00,
2013-02-09 20:39:00,45.4,36.2,30.00,South,175,0.0,0.0,70,0.00,CLR,,0.00,WeatherDisplay:10.37,2013-02-10 04:39:00,
2013-02-09 20:44:00,45.4,36.2,30.01,South,175,0.0,3.5,70,0.00,CLR,,0.00,WeatherDisplay:10.37,2013-02-10 04:44:00,
2013-02-09 20:49:00,45.2,36.0,30.01,South,175,0.0,0.0,70,0.00,CLR,,0.00,WeatherDisplay:10.37,2013-02-10 04:49:00,
2013-02-09 20:54:00,45.1,35.9,30.01,SSE,157,0.0,0.0,70,0.00,CLR,,0.00,WeatherDisplay:10.37,2013-02-10 04:54:00,
2013-02-09 20:59:00,44.9,36.1,30.01,SE,141,0.0,0.0,71,0.00,CLR,,0.00,WeatherDisplay:10.37,2013-02-10 04:59:00,
2013-02-09 21:00:00,44.9,36.1,30.01,SE,141,0.1,1.0,71,0.00,CLR,,0.00,WeatherDisplay:10.37,2013-02-10 05:00:00,
2013-02-09 21:01:00,44.9,36.1,30.01,SE,141,0.2,1.2,71,0.00,CLR,,0.00,WeatherDisplay:10.37,2013-02-10 05:01:00,
2013-02-09 21:02:00,44.9,36.1,30.01,SE,141,0.2,1.2,71,0.00,CLR,,0.00,WeatherDisplay:10.37,2013-02-10 05:02:00,
2013-02-09 21:07:00,44.9,36.1,30.01,SE,140,0.0,1.2,71,0.00,CLR,,0.00,WeatherDisplay:10.37,2013-02-10 05:07:00,
2013-02-09 21:12:00,44.8,36.0,30.01,SE,140,0.0,0.0,71,0.00,CLR,,0.00,WeatherDisplay:10.37,2013-02-10 05:12:00,
2013-02-09 21:17:00,44.8,36.0,30.01,SE,140,0.0,0.0,71,0.00,CLR,,0.00,WeatherDisplay:10.37,2013-02-10 05:17:00,
2013-02-09 21:22:00,44.8,36.0,30.01,SE,140,0.0,0.0,71,0.00,CLR,,0.00,WeatherDisplay:10.37,2013-02-10 05:22:00,
2013-02-09 21:27:00,44.8,36.0,30.01,SE,140,0.0,0.0,71,0.00,CLR,,0.00,WeatherDisplay:10.37,2013-02-10 05:27:00,
2013-02-09 21:32:00,44.6,35.8,30.02,SE,140,0.0,0.0,71,0.00,CLR,,0.00,WeatherDisplay:10.37,2013-02-10 05:32:00,
2013-02-09 21:37:00,44.6,36.1,30.02,SE,140,0.0,0.0,72,0.00,CLR,,0.00,WeatherDisplay:10.37,2013-02-10 05:37:00,
2013-02-09 21:42:00,44.5,36.0,30.02,SE,140,0.0,0.0,72,0.00,CLR,,0.00,WeatherDisplay:10.37,2013-02-10 05:42:00,
2013-02-09 21:47:00,44.5,36.0,30.02,SE,140,0.0,0.0,72,0.00,CLR,,0.00,WeatherDisplay:10.37,2013-02-10 05:47:00,
2013-02-09 21:52:00,44.6,36.8,30.02,SE,140,0.0,0.0,74,0.00,CLR,,0.00,WeatherDisplay:10.37,2013-02-10 05:52:00,
2013-02-09 21:57:00,44.5,36.4,30.03,SE,140,0.0,0.0,73,0.00,CLR,,0.00,WeatherDisplay:10.37,2013-02-10 05:57:00,
2013-02-09 22:02:00,44.3,35.8,30.03,SE,140,0.0,0.0,72,0.00,CLR,,0.00,WeatherDisplay:10.37,2013-02-10 06:02:00,
2013-02-09 22:07:00,44.2,36.1,30.02,SE,140,0.0,0.0,73,0.00,CLR,,0.00,WeatherDisplay:10.37,2013-02-10 06:07:00,
2013-02-09 22:12:00,44.1,36.0,30.02,SE,140,0.0,0.0,73,0.00,CLR,,0.00,WeatherDisplay:10.37,2013-02-10 06:12:00,
2013-02-09 22:17:00,44.1,36.0,30.02,SE,140,0.0,0.0,73,0.00,CLR,,0.00,WeatherDisplay:10.37,2013-02-10 06:17:00,
2013-02-09 22:22:00,43.9,35.8,30.02,SE,140,0.0,0.0,73,0.00,CLR,,0.00,WeatherDisplay:10.37,2013-02-10 06:22:00,
2013-02-09 22:27:00,43.9,36.1,30.02,SE,140,0.0,0.0,74,0.00,CLR,,0.00,WeatherDisplay:10.37,2013-02-10 06:27:00,
2013-02-09 22:32:00,43.8,36.0,30.02,SE,140,0.0,0.0,74,0.00,CLR,,0.00,WeatherDisplay:10.37,2013-02-10 06:32:00,
2013-02-09 22:37:00,43.8,36.0,30.02,SE,140,0.0,0.0,74,0.00,CLR,,0.00,WeatherDisplay:10.37,2013-02-10 06:37:00,
2013-02-09 22:42:00,43.8,36.0,30.02,SE,140,0.0,0.0,74,0.00,CLR,,0.00,WeatherDisplay:10.37,2013-02-10 06:42:00,
2013-02-09 22:47:00,43.8,36.0,30.03,SE,140,0.0,0.0,74,0.00,CLR,,0.00,WeatherDisplay:10.37,2013-02-10 06:47:00,
2013-02-09 22:52:00,43.9,36.1,30.03,SE,140,0.0,0.0,74,0.00,CLR,,0.00,WeatherDisplay:10.37,2013-02-10 06:52:00,
2013-02-09 22:57:00,43.9,36.1,30.03,SE,140,0.0,0.0,74,0.00,CLR,,0.00,WeatherDisplay:10.37,2013-02-10 06:57:00,
2013-02-09 23:02:00,44.1,36.3,30.03,SE,140,0.0,0.0,74,0.00,CLR,,0.00,WeatherDisplay:10.37,2013-02-10 07:02:00,
2013-02-09 23:07:00,44.1,36.3,30.02,SE,140,0.0,0.0,74,0.00,CLR,,0.00,WeatherDisplay:10.37,2013-02-10 07:07:00,
2013-02-09 23:12:00,44.1,36.3,30.02,SE,140,0.0,0.0,74,0.00,CLR,,0.00,WeatherDisplay:10.37,2013-02-10 07:12:00,
2013-02-09 23:17:00,44.1,36.3,30.02,SE,140,0.0,0.0,74,0.00,CLR,,0.00,WeatherDisplay:10.37,2013-02-10 07:17:00,
2013-02-09 23:22:00,44.2,36.8,30.02,SE,140,0.0,0.0,75,0.00,CLR,,0.00,WeatherDisplay:10.37,2013-02-10 07:22:00,
2013-02-09 23:27:00,44.2,36.8,30.02,SE,140,0.0,0.0,75,0.00,CLR,,0.00,WeatherDisplay:10.37,2013-02-10 07:27:00,
2013-02-09 23:32:00,44.1,36.7,30.02,SE,140,0.0,0.0,75,0.00,CLR,,0.00,WeatherDisplay:10.37,2013-02-10 07:32:00,
2013-02-09 23:37:00,44.1,36.7,30.02,SE,140,0.0,0.0,75,0.00,CLR,,0.00,WeatherDisplay:10.37,2013-02-10 07:37:00,
2013-02-09 23:42:00,44.1,36.7,30.02,SE,140,0.0,3.5,75,0.00,CLR,,0.00,WeatherDisplay:10.37,2013-02-10 07:42:00,
2013-02-09 23:47:00,43.9,36.5,30.02,SE,140,0.0,0.0,75,0.00,CLR,,0.00,WeatherDisplay:10.37,2013-02-10 07:47:00,
2013-02-09 23:52:00,43.9,36.5,30.03,SE,140,0.0,0.0,75,0.00,CLR,,0.00,WeatherDisplay:10.37,2013-02-10 07:52:00,
2013-02-09 23:57:00,43.9,36.5,30.03,SE,140,0.0,0.0,75,0.00,CLR,,0.00,WeatherDisplay:10.37,2013-02-10 07:57:00,